Time;durP1;ratioP1;P1;durP2;ratioP2;P2;SDS_P1;SDS_P2;PMS_P1;PMS_P2;Temp;Humidity;BMP_temperature;BMP_pressure;BME280_temperature;BME280_humidity;BME280_pressure;Samples;Min_cycle;Max_cycle;Signal;HPM_P1;HPM_P2
2023/12/15 00:00:03;;;;;;;5.25;3.40;;;;;;;8.06;62.97;98308.00;4894518;28;20200;-79
2023/12/15 00:02:28;;;;;;;4.53;3.10;;;;;;;8.05;62.03;98309.78;4900125;28;20286;-79
2023/12/15 00:04:54;;;;;;;5.03;3.20;;;;;;;8.03;62.92;98309.16;4903242;28;20632;-79
2023/12/15 00:07:19;;;;;;;5.10;3.03;;;;;;;8.11;63.25;98315.97;4928823;28;20716;-80
2023/12/15 00:09:44;;;;;;;5.55;3.03;;;;;;;8.09;62.82;98312.78;4924937;28;20243;-79
2023/12/15 00:12:10;;;;;;;3.85;2.70;;;;;;;8.05;63.17;98314.16;4929536;28;20282;-79
2023/12/15 00:14:35;;;;;;;5.25;3.30;;;;;;;8.06;62.66;98313.97;4906206;28;20077;-79
2023/12/15 00:17:01;;;;;;;5.60;3.20;;;;;;;8.05;62.89;98312.38;4897583;28;20103;-79
2023/12/15 00:19:27;;;;;;;5.05;2.85;;;;;;;8.05;62.87;98314.97;4887037;28;20209;-79
2023/12/15 00:21:52;;;;;;;6.07;3.15;;;;;;;8.06;62.93;98329.53;4893923;28;20174;-79
2023/12/15 00:24:17;;;;;;;4.80;3.20;;;;;;;8.03;62.77;98324.72;4925627;28;20174;-79
2023/12/15 00:26:43;;;;;;;5.47;3.17;;;;;;;8.03;62.78;98334.31;4909112;28;20514;-78
2023/12/15 00:29:08;;;;;;;4.22;2.90;;;;;;;7.98;62.35;98331.53;4895042;28;20084;-79
2023/12/15 00:31:35;;;;;;;6.88;4.32;;;;;;;7.97;62.57;98335.09;4900033;28;20279;-79
2023/12/15 00:34:00;;;;;;;4.85;3.05;;;;;;;7.94;62.91;98330.34;4877698;28;20222;-78
2023/12/15 00:36:26;;;;;;;5.25;3.45;;;;;;;7.98;63.31;98342.69;4882863;28;20356;-79
2023/12/15 00:38:52;;;;;;;5.15;3.25;;;;;;;7.96;62.59;98336.13;4896128;28;20268;-79
2023/12/15 00:41:17;;;;;;;5.75;3.42;;;;;;;7.96;62.84;98334.31;4895188;28;20286;-79
2023/12/15 00:43:43;;;;;;;6.13;3.90;;;;;;;7.98;62.88;98337.50;4895913;28;20467;-78
2023/12/15 00:46:08;;;;;;;6.32;3.92;;;;;;;7.97;63.56;98338.50;4878390;28;20133;-79
2023/12/15 00:48:33;;;;;;;5.97;4.00;;;;;;;7.99;63.01;98340.91;4908632;28;20639;-78
2023/12/15 00:50:58;;;;;;;6.30;3.65;;;;;;;7.98;63.15;98349.69;4914798;28;20286;-78
2023/12/15 00:53:24;;;;;;;7.78;4.30;;;;;;;7.98;63.88;98352.28;4933073;28;20213;-78
2023/12/15 00:55:49;;;;;;;5.78;3.25;;;;;;;7.97;63.87;98356.66;4882845;28;20615;-78
2023/12/15 00:58:15;;;;;;;6.43;3.53;;;;;;;8.00;63.54;98356.28;4902350;28;20268;-78
2023/12/15 01:00:40;;;;;;;7.20;3.95;;;;;;;7.99;62.77;98357.25;4919796;28;20189;-78
2023/12/15 01:03:05;;;;;;;5.85;3.88;;;;;;;8.03;63.13;98361.03;4918109;28;20371;-78
2023/12/15 01:05:31;;;;;;;5.72;3.13;;;;;;;8.03;62.10;98360.25;4927478;28;20099;-78
2023/12/15 01:07:56;;;;;;;6.38;4.00;;;;;;;8.05;62.34;98364.25;4905858;28;20192;-78
2023/12/15 01:10:22;;;;;;;5.45;3.70;;;;;;;8.10;62.39;98366.25;4901626;28;20635;-79
2023/12/15 01:12:47;;;;;;;5.10;3.15;;;;;;;8.09;63.07;98369.03;4881502;28;20885;-78
2023/12/15 01:15:12;;;;;;;5.65;3.72;;;;;;;8.06;62.85;98373.63;4915588;28;21017;-79
2023/12/15 01:17:38;;;;;;;6.75;3.97;;;;;;;8.00;62.45;98377.03;4907759;28;20340;-78
2023/12/15 01:20:04;;;;;;;6.93;4.28;;;;;;;8.04;63.44;98388.59;4894208;28;20281;-79
2023/12/15 01:22:29;;;;;;;6.03;4.47;;;;;;;8.06;62.51;98381.41;4892905;28;20248;-79
2023/12/15 01:24:54;;;;;;;6.28;4.35;;;;;;;8.00;62.92;98384.81;4908274;28;20261;-80
2023/12/15 01:27:20;;;;;;;8.65;4.43;;;;;;;8.06;62.50;98386.59;4890925;28;20193;-79
2023/12/15 01:29:45;;;;;;;7.22;4.07;;;;;;;8.00;62.38;98384.81;4929613;28;20198;-79
2023/12/15 01:32:10;;;;;;;8.05;4.65;;;;;;;8.11;62.82;98396.38;4918617;28;20178;-79
2023/12/15 01:34:36;;;;;;;7.53;4.75;;;;;;;8.14;62.75;98395.16;4876499;28;20185;-79
2023/12/15 01:37:01;;;;;;;7.00;4.40;;;;;;;8.02;62.70;98393.19;4890894;28;20359;-80
2023/12/15 01:39:27;;;;;;;8.07;4.22;;;;;;;8.00;62.13;98394.38;4912966;28;20209;-79
2023/12/15 01:41:52;;;;;;;6.82;4.32;;;;;;;7.93;63.55;98386.56;4935981;28;20255;-79
2023/12/15 01:44:18;;;;;;;8.65;5.13;;;;;;;7.92;62.92;98391.94;4895779;28;20196;-78
2023/12/15 01:46:43;;;;;;;7.47;4.75;;;;;;;7.91;62.93;98392.97;4914599;28;20237;-79
2023/12/15 01:49:09;;;;;;;9.73;5.35;;;;;;;7.96;63.09;98400.94;4893545;28;20295;-79
2023/12/15 01:51:34;;;;;;;9.43;5.35;;;;;;;7.96;62.52;98403.53;4874925;28;20250;-79
2023/12/15 01:53:59;;;;;;;7.60;4.20;;;;;;;7.94;62.84;98414.09;4904727;28;20740;-78
2023/12/15 01:56:25;;;;;;;7.22;4.53;;;;;;;7.92;62.45;98416.09;4875930;28;20294;-80
2023/12/15 01:58:50;;;;;;;9.15;4.53;;;;;;;7.86;63.79;98407.31;4873751;28;20194;-79
2023/12/15 02:01:15;;;;;;;8.95;4.57;;;;;;;7.78;63.54;98412.69;4894017;28;20214;-79
2023/12/15 02:03:41;;;;;;;9.43;5.10;;;;;;;7.85;63.59;98426.47;4875279;28;20185;-78
2023/12/15 02:06:06;;;;;;;8.55;4.30;;;;;;;7.78;62.92;98430.00;4906991;28;20279;-79
2023/12/15 02:08:32;;;;;;;9.68;5.03;;;;;;;7.64;63.27;98424.81;4915742;28;20275;-78
2023/12/15 02:10:57;;;;;;;8.35;4.68;;;;;;;7.65;63.42;98428.19;4903162;28;20638;-78
2023/12/15 02:13:22;;;;;;;8.00;4.88;;;;;;;7.63;63.29;98436.16;4915314;28;20604;-78
2023/12/15 02:15:48;;;;;;;9.20;5.18;;;;;;;7.56;63.85;98435.34;4906438;28;20272;-78
2023/12/15 02:18:13;;;;;;;8.85;5.45;;;;;;;7.55;63.83;98441.50;4886626;28;20103;-78
2023/12/15 02:20:38;;;;;;;9.50;4.90;;;;;;;7.52;63.90;98444.47;4887705;28;20564;-78
2023/12/15 02:23:04;;;;;;;8.48;4.57;;;;;;;7.49;63.65;98435.31;4921670;28;20672;-79
2023/12/15 02:25:29;;;;;;;9.57;5.20;;;;;;;7.48;63.86;98449.25;4881420;28;20192;-79
2023/12/15 02:27:55;;;;;;;12.07;5.75;;;;;;;7.45;63.15;98447.06;4886430;28;20289;-79
2023/12/15 02:30:20;;;;;;;8.45;5.03;;;;;;;7.47;63.28;98449.44;4886926;28;20202;-79
2023/12/15 02:32:45;;;;;;;7.75;5.13;;;;;;;7.44;64.05;98445.44;4888908;28;20621;-79
2023/12/15 02:35:12;;;;;;;10.55;6.00;;;;;;;7.44;64.55;98458.41;4908855;28;20276;-79
2023/12/15 02:37:38;;;;;;;12.05;5.53;;;;;;;7.38;64.57;98453.19;4920642;28;20202;-79
2023/12/15 02:40:04;;;;;;;9.35;5.35;;;;;;;7.29;64.07;98455.13;4919948;28;20296;-79
2023/12/15 02:42:29;;;;;;;8.82;5.38;;;;;;;7.28;64.01;98469.06;4918693;28;20714;-80
2023/12/15 02:44:55;;;;;;;7.63;5.13;;;;;;;7.31;64.30;98466.09;4888671;28;20170;-79
2023/12/15 02:47:20;;;;;;;8.30;4.93;;;;;;;7.27;64.29;98468.28;4888406;28;20713;-79
2023/12/15 02:49:45;;;;;;;10.00;5.43;;;;;;;7.23;64.04;98469.66;4888704;28;20296;-79
2023/12/15 02:52:11;;;;;;;9.98;5.35;;;;;;;7.24;64.11;98473.84;4907180;28;20221;-79
2023/12/15 02:54:36;;;;;;;8.85;4.93;;;;;;;7.25;64.92;98474.66;4905345;28;20118;-79
2023/12/15 02:57:02;;;;;;;8.32;5.30;;;;;;;7.30;64.34;98470.50;4904678;28;20731;-79
2023/12/15 02:59:27;;;;;;;11.32;6.40;;;;;;;7.30;64.46;98473.09;4889521;28;20370;-79
2023/12/15 03:01:52;;;;;;;11.20;6.22;;;;;;;7.31;65.26;98472.06;4922059;28;20147;-79
2023/12/15 03:04:18;;;;;;;10.48;5.55;;;;;;;7.36;64.86;98478.50;4908998;28;20213;-79
2023/12/15 03:06:43;;;;;;;11.13;5.68;;;;;;;7.37;64.75;98486.09;4888672;28;20614;-79
2023/12/15 03:09:08;;;;;;;11.23;6.15;;;;;;;7.36;64.47;98478.50;4890178;28;20287;-79
2023/12/15 03:11:34;;;;;;;11.38;6.88;;;;;;;7.40;65.11;98475.34;4905914;28;20269;-79
2023/12/15 03:14:00;;;;;;;11.23;6.13;;;;;;;7.38;65.12;98477.28;4906165;28;20167;-79
2023/12/15 03:16:25;;;;;;;12.02;6.45;;;;;;;7.41;65.30;98476.13;4873557;28;20209;-79
2023/12/15 03:18:51;;;;;;;11.57;6.32;;;;;;;7.48;64.79;98476.97;4890094;28;20197;-78
2023/12/15 03:21:16;;;;;;;12.23;7.15;;;;;;;7.53;65.27;98481.56;4870158;28;20171;-78
2023/12/15 03:23:41;;;;;;;10.73;6.53;;;;;;;7.49;65.27;98466.41;4904162;28;20633;-78
2023/12/15 03:26:07;;;;;;;13.50;7.28;;;;;;;7.56;65.93;98486.38;4905397;28;20260;-79
2023/12/15 03:28:32;;;;;;;13.20;6.70;;;;;;;7.57;65.49;98477.59;4877360;28;20170;-77
2023/12/15 03:30:57;;;;;;;13.40;7.13;;;;;;;7.60;64.76;98474.63;4908142;28;20221;-78
2023/12/15 03:33:25;;;;;;;14.40;6.75;;;;;;;7.69;65.82;98482.06;4912337;28;20201;-78
2023/12/15 03:35:50;;;;;;;14.65;7.90;;;;;;;7.61;65.39;98466.66;4908860;28;20753;-78
2023/12/15 03:38:16;;;;;;;15.15;7.82;;;;;;;7.67;65.59;98484.00;4890192;28;20217;-78
2023/12/15 03:40:41;;;;;;;15.82;8.07;;;;;;;7.63;65.69;98475.03;4879474;28;20255;-78
2023/12/15 03:43:06;;;;;;;17.10;7.82;;;;;;;7.67;65.17;98478.03;4915006;28;20681;-78
2023/12/15 03:45:32;;;;;;;13.52;7.78;;;;;;;7.76;65.66;98495.03;4900504;28;20166;-78
2023/12/15 03:47:57;;;;;;;16.98;8.60;;;;;;;7.86;65.04;98492.91;4891171;28;20660;-78
2023/12/15 03:50:23;;;;;;;17.42;7.72;;;;;;;7.89;65.00;98502.06;4910995;28;20170;-78
2023/12/15 03:52:49;;;;;;;17.40;8.98;;;;;;;7.85;65.92;98499.06;4892037;28;20253;-78
2023/12/15 03:55:17;;;;;;;16.45;8.18;;;;;;;7.94;65.86;98502.28;4924826;28;20788;-78
2023/12/15 03:57:42;;;;;;;15.40;8.82;;;;;;;8.03;65.39;98513.28;4919264;28;20232;-78
2023/12/15 04:00:08;;;;;;;17.98;9.10;;;;;;;7.99;66.05;98523.25;4876609;28;20723;-78
2023/12/15 04:02:34;;;;;;;15.27;8.27;;;;;;;7.97;66.57;98512.28;4890000;28;20205;-78
2023/12/15 04:05:00;;;;;;;16.23;9.05;;;;;;;7.99;66.19;98515.47;4895879;28;20158;-78
2023/12/15 04:07:25;;;;;;;17.70;9.40;;;;;;;8.02;65.30;98524.63;4906970;28;20244;-78
2023/12/15 04:09:51;;;;;;;17.40;9.05;;;;;;;8.02;65.26;98527.22;4923637;28;20760;-78
2023/12/15 04:12:17;;;;;;;14.73;7.95;;;;;;;7.96;65.74;98521.03;4921403;28;20352;-78
2023/12/15 04:14:42;;;;;;;15.38;8.77;;;;;;;7.97;65.76;98525.25;4923393;28;20689;-78
2023/12/15 04:17:08;;;;;;;14.40;7.78;;;;;;;7.99;66.20;98530.25;4891747;28;20252;-78
2023/12/15 04:19:33;;;;;;;14.43;8.68;;;;;;;7.99;66.04;98528.44;4905939;28;20252;-78
2023/12/15 04:21:58;;;;;;;15.68;8.13;;;;;;;8.02;65.43;98529.81;4876165;28;20403;-78
2023/12/15 04:24:25;;;;;;;16.40;8.52;;;;;;;8.05;65.70;98525.06;4892456;28;20296;-78
2023/12/15 04:26:51;;;;;;;17.70;8.90;;;;;;;8.12;65.23;98534.66;4922488;28;20711;-78
2023/12/15 04:29:16;;;;;;;16.77;8.43;;;;;;;8.11;65.71;98536.47;4893969;28;20531;-79
2023/12/15 04:31:41;;;;;;;17.55;9.63;;;;;;;8.15;65.53;98544.66;4914839;28;20276;-78
2023/12/15 04:34:07;;;;;;;17.70;8.82;;;;;;;8.19;65.83;98541.50;4898337;28;20197;-79
2023/12/15 04:36:32;;;;;;;18.67;9.73;;;;;;;8.18;65.62;98539.09;4917098;28;20213;-79
2023/12/15 04:38:58;;;;;;;18.67;9.70;;;;;;;8.15;65.38;98560.22;4892707;28;20217;-79
2023/12/15 04:41:24;;;;;;;22.52;11.38;;;;;;;8.18;64.86;98554.66;4897883;28;20213;-79
2023/12/15 04:43:49;;;;;;;19.90;10.13;;;;;;;8.21;65.13;98555.06;4908567;28;20143;-79
2023/12/15 04:46:41;;;;;;;21.83;11.10;;;;;;;8.41;65.62;98557.72;4903214;28;20277;-78
2023/12/15 04:49:06;;;;;;;28.90;11.95;;;;;;;8.30;64.71;98566.06;4909971;28;20217;-80
2023/12/15 04:51:35;;;;;;;21.77;12.55;;;;;;;8.35;65.25;98561.09;4875751;28;20254;-79
2023/12/15 04:54:00;;;;;;;23.98;12.68;;;;;;;8.39;64.81;98557.09;4891720;28;20403;-78
2023/12/15 04:56:25;;;;;;;21.88;12.13;;;;;;;8.42;65.34;98561.94;4907977;28;20583;-79
2023/12/15 04:58:51;;;;;;;21.98;12.38;;;;;;;8.49;64.99;98569.75;4889737;28;20675;-79
2023/12/15 05:01:17;;;;;;;25.23;12.48;;;;;;;8.40;64.90;98569.09;4878545;28;20715;-80
2023/12/15 05:03:43;;;;;;;25.92;12.65;;;;;;;8.46;65.25;98571.94;4907352;28;20727;-79
2023/12/15 05:06:19;;;;;;;25.13;12.23;;;;;;;8.55;65.31;98575.94;4891837;28;20645;-79
2023/12/15 05:08:45;;;;;;;25.77;12.57;;;;;;;8.46;65.41;98579.72;4875485;28;20280;-78
2023/12/15 05:11:10;;;;;;;25.58;13.25;;;;;;;8.44;65.05;98582.50;4910059;28;20626;-79
2023/12/15 05:13:36;;;;;;;28.63;13.15;;;;;;;8.48;65.11;98585.50;4896151;28;20232;-79
2023/12/15 05:16:01;;;;;;;25.60;13.30;;;;;;;8.47;65.28;98589.13;4912982;28;20175;-80
2023/12/15 05:18:27;;;;;;;26.25;12.98;;;;;;;8.53;65.69;98588.31;4892279;28;20226;-79
2023/12/15 05:20:52;;;;;;;29.80;13.93;;;;;;;8.50;65.66;98591.28;4892729;28;20708;-79
2023/12/15 05:23:17;;;;;;;27.38;12.65;;;;;;;8.60;65.51;98602.94;4909477;28;20123;-79
2023/12/15 05:25:43;;;;;;;24.65;12.85;;;;;;;8.60;65.30;98617.69;4919700;28;20186;-79
2023/12/15 05:28:08;;;;;;;25.63;12.48;;;;;;;8.62;64.99;98628.69;4907658;28;20682;-79
2023/12/15 05:30:34;;;;;;;25.60;13.05;;;;;;;8.69;65.37;98637.31;4900227;28;20271;-78
2023/12/15 05:32:59;;;;;;;23.63;12.52;;;;;;;8.61;65.72;98637.47;4875529;28;20283;-78
2023/12/15 05:35:24;;;;;;;26.80;12.68;;;;;;;8.67;65.34;98644.50;4906428;28;20301;-79
2023/12/15 05:37:50;;;;;;;20.85;11.43;;;;;;;8.65;65.12;98648.25;4891742;28;20347;-79
2023/12/15 05:40:16;;;;;;;23.25;12.43;;;;;;;8.59;65.69;98655.84;4876482;28;20217;-78
2023/12/15 05:42:41;;;;;;;25.23;12.20;;;;;;;8.55;65.99;98659.81;4892915;28;20199;-78
2023/12/15 05:45:08;;;;;;;23.77;11.50;;;;;;;8.51;66.63;98656.00;4905252;28;20258;-78
2023/12/15 05:47:35;;;;;;;23.33;11.77;;;;;;;8.55;66.15;98664.19;4889050;28;20186;-78
2023/12/15 05:50:01;;;;;;;23.73;12.48;;;;;;;8.52;65.76;98668.00;4899765;28;20291;-78
2023/12/15 05:52:26;;;;;;;21.80;11.85;;;;;;;8.54;66.50;98673.00;4902669;28;20160;-78
2023/12/15 05:54:51;;;;;;;24.35;12.07;;;;;;;8.49;67.07;98667.59;4876332;28;20199;-78
2023/12/15 05:57:17;;;;;;;23.73;12.70;;;;;;;8.53;66.19;98672.16;4903705;28;20213;-78
2023/12/15 05:59:42;;;;;;;20.98;11.50;;;;;;;8.58;66.59;98679.38;4872801;28;20599;-78
2023/12/15 06:02:09;;;;;;;20.58;10.82;;;;;;;8.62;66.48;98683.22;4871936;28;20672;-78
2023/12/15 06:04:34;;;;;;;26.70;13.25;;;;;;;8.57;65.83;98683.00;4918363;28;20652;-79
2023/12/15 06:07:00;;;;;;;23.25;12.68;;;;;;;8.47;66.59;98678.16;4898677;28;20190;-78
2023/12/15 06:09:25;;;;;;;22.80;11.85;;;;;;;8.54;66.76;98693.75;4889325;28;20707;-78
2023/12/15 06:11:52;;;;;;;19.38;11.77;;;;;;;8.59;65.76;98689.59;4877871;28;20724;-78
2023/12/15 06:14:20;;;;;;;26.98;11.40;;;;;;;8.53;66.80;98692.94;4906238;28;20388;-78
2023/12/15 06:16:46;;;;;;;24.50;11.68;;;;;;;8.55;66.03;98692.75;4916307;28;20293;-78
2023/12/15 06:19:11;;;;;;;22.48;11.13;;;;;;;8.54;65.92;98691.16;4906347;28;20249;-78
2023/12/15 06:21:37;;;;;;;20.83;11.23;;;;;;;8.57;66.81;98691.59;4917074;28;20701;-78
2023/12/15 06:24:03;;;;;;;22.42;11.95;;;;;;;8.53;66.26;98692.94;4889942;28;20217;-78
2023/12/15 06:26:28;;;;;;;19.45;10.73;;;;;;;8.54;66.84;98688.56;4887815;28;20221;-78
2023/12/15 06:28:57;;;;;;;21.67;10.43;;;;;;;8.52;66.52;98690.56;4886860;28;20672;-78
2023/12/15 06:31:25;;;;;;;21.00;10.75;;;;;;;8.49;66.07;98688.34;4902590;28;20295;-78
2023/12/15 06:33:51;;;;;;;18.35;10.40;;;;;;;8.55;66.16;98685.78;4889001;28;20208;-78
2023/12/15 06:36:16;;;;;;;16.65;9.95;;;;;;;8.60;66.17;98699.00;4895392;28;20188;-78
2023/12/15 06:38:44;;;;;;;20.65;11.32;;;;;;;8.61;66.32;98699.78;4909164;28;20208;-78
2023/12/15 06:41:10;;;;;;;22.77;10.88;;;;;;;8.66;65.98;98700.00;4887573;28;20322;-78
2023/12/15 06:43:39;;;;;;;21.63;10.45;;;;;;;8.60;65.95;98698.16;4904643;28;20714;-78
2023/12/15 06:46:04;;;;;;;19.85;10.48;;;;;;;8.60;66.73;98698.16;4895423;28;20703;-78
2023/12/15 06:48:29;;;;;;;19.33;10.27;;;;;;;8.61;66.30;98700.56;4911958;28;20355;-78
2023/12/15 06:50:55;;;;;;;20.67;11.00;;;;;;;8.59;66.35;98701.78;4918016;28;20293;-79
2023/12/15 06:53:21;;;;;;;18.40;10.50;;;;;;;8.56;66.79;98704.75;4908475;28;20645;-78
2023/12/15 06:55:46;;;;;;;18.00;10.82;;;;;;;8.54;66.02;98709.34;4904446;28;20636;-78
2023/12/15 06:58:11;;;;;;;18.60;10.73;;;;;;;8.51;66.64;98704.53;4896420;28;20722;-78
2023/12/15 07:00:37;;;;;;;21.35;10.90;;;;;;;8.47;66.54;98708.50;4885632;28;20270;-78
2023/12/15 07:03:04;;;;;;;21.08;10.35;;;;;;;8.62;65.95;98709.97;4919443;28;20170;-78
2023/12/15 07:05:29;;;;;;;18.95;10.25;;;;;;;8.73;65.60;98716.41;4888081;28;20205;-78
2023/12/15 07:07:55;;;;;;;22.65;11.43;;;;;;;8.72;66.44;98714.00;4888650;28;20198;-78
2023/12/15 07:10:20;;;;;;;17.95;10.68;;;;;;;8.69;66.22;98717.78;4907272;28;20158;-78
2023/12/15 07:12:45;;;;;;;18.38;8.77;;;;;;;8.66;66.08;98728.56;4891732;28;20650;-78
2023/12/15 07:15:11;;;;;;;18.52;10.00;;;;;;;8.80;65.62;98732.81;4916520;28;20750;-78
2023/12/15 07:17:36;;;;;;;21.27;10.43;;;;;;;8.73;65.63;98729.38;4907274;28;20196;-78
2023/12/15 07:20:04;;;;;;;17.23;9.70;;;;;;;8.61;66.52;98726.53;4890978;28;20174;-78
2023/12/15 07:22:29;;;;;;;19.23;9.68;;;;;;;8.68;66.61;98746.53;4911570;28;20281;-78
2023/12/15 07:24:55;;;;;;;18.90;10.77;;;;;;;8.72;66.53;98751.16;4909435;28;20672;-78
2023/12/15 07:27:20;;;;;;;19.52;10.00;;;;;;;8.74;66.13;98751.78;4907128;28;21162;-78
2023/12/15 07:29:45;;;;;;;22.92;11.77;;;;;;;8.88;65.69;98744.84;4875539;28;20348;-78
2023/12/15 07:32:11;;;;;;;19.65;10.35;;;;;;;8.93;65.47;98749.47;4891798;28;20213;-78
2023/12/15 07:34:36;;;;;;;19.27;10.43;;;;;;;8.98;65.64;98760.06;4891780;28;20378;-78
2023/12/15 07:37:02;;;;;;;17.23;10.80;;;;;;;8.93;64.99;98759.84;4891385;28;20297;-78
2023/12/15 07:39:27;;;;;;;20.00;10.73;;;;;;;8.93;65.12;98765.03;4907686;28;20233;-78
2023/12/15 07:41:52;;;;;;;17.95;9.98;;;;;;;8.80;65.64;98756.19;4875802;28;20727;-79
2023/12/15 07:44:18;;;;;;;19.52;10.98;;;;;;;8.88;65.96;98751.84;4915384;28;20384;-78
2023/12/15 07:46:43;;;;;;;20.92;10.18;;;;;;;8.96;66.00;98764.63;4897574;28;20276;-78
2023/12/15 07:49:10;;;;;;;20.60;10.48;;;;;;;8.84;65.78;98755.78;4907830;28;20623;-78
2023/12/15 07:51:35;;;;;;;22.55;10.60;;;;;;;8.85;65.51;98778.97;4911650;28;20202;-78
2023/12/15 07:54:01;;;;;;;21.27;10.98;;;;;;;8.99;65.49;98779.84;4906722;28;20613;-79
2023/12/15 07:56:28;;;;;;;19.25;10.35;;;;;;;8.97;65.96;98787.81;4891073;28;20249;-78
2023/12/15 07:58:54;;;;;;;21.23;11.23;;;;;;;8.88;65.38;98796.00;4889516;28;20293;-78
2023/12/15 08:01:21;;;;;;;24.08;11.52;;;;;;;9.00;65.26;98807.44;4894306;28;20209;-78
2023/12/15 08:03:46;;;;;;;22.23;10.73;;;;;;;8.93;66.07;98806.59;4911541;28;20238;-78
2023/12/15 08:06:16;;;;;;;21.35;10.95;;;;;;;9.01;65.22;98806.41;4909373;28;20343;-78
2023/12/15 08:08:43;;;;;;;19.40;9.45;;;;;;;8.96;65.31;98804.41;4890661;28;20285;-78
2023/12/15 08:11:10;;;;;;;20.27;11.25;;;;;;;9.07;65.52;98802.25;4910324;28;20220;-78
2023/12/15 08:13:36;;;;;;;21.35;11.30;;;;;;;8.99;65.78;98800.63;4891580;28;20323;-78
2023/12/15 08:16:03;;;;;;;19.48;9.55;;;;;;;8.96;66.01;98796.63;4914599;28;20144;-78
2023/12/15 08:18:28;;;;;;;21.95;11.85;;;;;;;9.04;65.74;98803.44;4893895;28;20185;-77
2023/12/15 08:20:53;;;;;;;19.60;10.65;;;;;;;8.85;66.27;98801.56;4920469;28;20216;-78
2023/12/15 08:23:19;;;;;;;19.73;10.48;;;;;;;8.95;65.59;98804.59;4908337;28;20192;-78
2023/12/15 08:25:44;;;;;;;25.70;11.68;;;;;;;8.93;66.41;98806.59;4907002;28;20698;-79
2023/12/15 08:28:11;;;;;;;19.88;10.60;;;;;;;8.96;66.63;98808.78;4890384;28;20352;-79
2023/12/15 08:30:39;;;;;;;18.73;9.55;;;;;;;8.91;66.99;98819.78;4915630;28;20208;-79
2023/12/15 08:33:05;;;;;;;20.05;9.77;;;;;;;9.00;66.40;98817.81;4886724;28;20282;-78
2023/12/15 08:35:31;;;;;;;20.65;10.05;;;;;;;9.14;66.04;98824.66;4868957;28;20280;-78
2023/12/15 08:37:56;;;;;;;20.88;9.57;;;;;;;9.11;66.23;98826.84;4890228;28;20291;-79
2023/12/15 08:40:22;;;;;;;19.25;10.23;;;;;;;9.12;64.96;98839.66;4913782;28;20575;-79
2023/12/15 08:42:48;;;;;;;19.23;10.23;;;;;;;9.15;65.48;98839.28;4905121;28;20590;-78
2023/12/15 08:45:14;;;;;;;20.52;10.20;;;;;;;9.05;65.32;98830.22;4889621;28;20189;-78
2023/12/15 08:47:39;;;;;;;15.38;9.40;;;;;;;9.21;65.95;98831.69;4920083;28;20299;-78
2023/12/15 08:50:05;;;;;;;19.13;9.48;;;;;;;9.05;66.02;98838.84;4909615;28;20252;-78
2023/12/15 08:52:30;;;;;;;20.00;10.18;;;;;;;9.05;66.52;98830.22;4895856;28;20405;-78
2023/12/15 08:54:55;;;;;;;19.38;9.82;;;;;;;8.99;66.58;98837.00;4890124;28;20154;-78
2023/12/15 08:57:21;;;;;;;19.50;10.18;;;;;;;9.23;65.77;98845.28;4923742;28;20403;-78
2023/12/15 08:59:47;;;;;;;18.77;9.48;;;;;;;9.17;66.13;98850.28;4893581;28;20193;-78
2023/12/15 09:02:12;;;;;;;18.15;9.52;;;;;;;9.17;65.68;98852.06;4903563;28;20026;-78
2023/12/15 09:04:37;;;;;;;18.88;9.38;;;;;;;9.18;66.17;98857.09;4899422;28;20276;-78
2023/12/15 09:07:03;;;;;;;18.80;10.38;;;;;;;9.26;65.64;98852.72;4899875;28;20217;-79
2023/12/15 09:09:28;;;;;;;18.35;10.02;;;;;;;9.26;65.61;98863.09;4882663;28;20220;-78
2023/12/15 09:11:54;;;;;;;16.90;8.93;;;;;;;9.25;65.88;98872.69;4921944;28;20268;-78
2023/12/15 09:14:21;;;;;;;17.15;9.18;;;;;;;9.17;65.85;98862.47;4909100;28;20192;-78
2023/12/15 09:16:47;;;;;;;16.35;9.18;;;;;;;9.27;66.30;98869.88;4908619;28;20635;-78
2023/12/15 09:19:13;;;;;;;19.58;8.93;;;;;;;9.29;65.59;98870.53;4924601;28;20212;-79
2023/12/15 09:21:38;;;;;;;16.60;8.63;;;;;;;9.31;66.29;98877.13;4915133;28;20194;-79
2023/12/15 09:24:09;;;;;;;16.88;8.98;;;;;;;9.36;65.73;98887.75;4901216;28;20265;-79
2023/12/15 09:26:35;;;;;;;14.25;8.60;;;;;;;9.36;65.37;98894.75;4884563;28;20216;-78
2023/12/15 09:29:00;;;;;;;13.93;8.45;;;;;;;9.34;65.47;98904.53;4898966;28;20646;-79
2023/12/15 09:31:25;;;;;;;14.60;8.00;;;;;;;9.44;65.64;98897.19;4890152;28;20284;-79
2023/12/15 09:33:51;;;;;;;14.77;8.30;;;;;;;9.45;65.22;98898.78;4905891;28;20317;-79
2023/12/15 09:36:16;;;;;;;12.98;7.68;;;;;;;9.33;65.89;98900.31;4873457;28;20205;-79
2023/12/15 09:38:41;;;;;;;13.55;8.15;;;;;;;9.37;65.26;98902.34;4889122;28;20263;-79
2023/12/15 09:41:07;;;;;;;13.68;7.40;;;;;;;9.31;65.81;98910.13;4922130;28;20160;-78
2023/12/15 09:43:32;;;;;;;13.90;7.80;;;;;;;9.31;65.34;98918.72;4921349;28;20204;-78
2023/12/15 09:45:58;;;;;;;18.75;9.48;;;;;;;9.29;64.78;98907.72;4904852;28;20250;-78
2023/12/15 09:48:25;;;;;;;13.30;7.28;;;;;;;9.38;65.56;98929.13;4906785;28;20667;-78
2023/12/15 09:50:55;;;;;;;14.25;7.95;;;;;;;9.40;65.69;98926.34;4907654;28;20328;-78
2023/12/15 09:53:21;;;;;;;13.88;7.70;;;;;;;9.31;65.51;98933.50;4892538;28;20491;-78
2023/12/15 09:55:46;;;;;;;17.80;7.80;;;;;;;9.28;65.80;98941.69;4867248;28;20578;-78
2023/12/15 09:58:12;;;;;;;13.50;7.03;;;;;;;9.34;65.72;98948.72;4905338;28;20628;-79
2023/12/15 10:00:38;;;;;;;13.88;7.22;;;;;;;9.32;65.98;98948.91;4921755;28;20227;-78
2023/12/15 10:03:03;;;;;;;10.98;6.70;;;;;;;9.38;65.15;98955.94;4918132;28;20276;-78
2023/12/15 10:05:29;;;;;;;15.07;7.90;;;;;;;9.30;65.49;98953.47;4902969;28;20305;-78
2023/12/15 10:07:55;;;;;;;10.95;7.43;;;;;;;9.47;65.35;98964.38;4909654;28;20344;-78
2023/12/15 10:10:21;;;;;;;12.75;7.18;;;;;;;9.48;65.05;98966.00;4926382;28;20286;-79
2023/12/15 10:12:46;;;;;;;13.50;7.80;;;;;;;9.52;65.33;98959.41;4920523;28;20214;-79
2023/12/15 10:15:12;;;;;;;13.13;7.05;;;;;;;9.38;65.20;98950.72;4918992;28;20304;-78
2023/12/15 10:17:37;;;;;;;14.15;7.90;;;;;;;9.50;64.83;98951.00;4885687;28;20196;-79
2023/12/15 10:20:10;;;;;;;11.65;7.38;;;;;;;9.51;65.28;98955.22;4912864;28;20671;-78
2023/12/15 10:22:38;;;;;;;13.05;6.72;;;;;;;9.41;64.89;98954.75;4887762;28;20392;-79
2023/12/15 10:25:19;;;;;;;13.32;7.70;;;;;;;9.63;65.35;98965.03;4904602;28;20242;-78
2023/12/15 10:27:45;;;;;;;12.77;7.20;;;;;;;9.52;65.00;98966.41;4904970;28;20370;-78
2023/12/15 10:30:11;;;;;;;11.75;7.03;;;;;;;9.44;64.57;98951.78;4904794;28;20344;-78
2023/12/15 10:32:37;;;;;;;12.05;6.80;;;;;;;9.51;64.84;98957.81;4902637;28;20194;-78
2023/12/15 10:35:03;;;;;;;12.40;7.38;;;;;;;9.57;64.69;98949.22;4889060;28;20611;-78
2023/12/15 10:37:29;;;;;;;12.38;7.32;;;;;;;9.52;65.07;98958.59;4874022;28;20534;-78
2023/12/15 10:39:55;;;;;;;13.32;7.50;;;;;;;9.58;65.06;98960.44;4903017;28;20288;-78
2023/12/15 10:42:23;;;;;;;14.18;7.93;;;;;;;9.54;65.43;98965.22;4904007;28;20189;-79
2023/12/15 10:44:50;;;;;;;13.13;8.30;;;;;;;9.54;65.80;98954.81;4888081;28;20273;-78
2023/12/15 10:47:16;;;;;;;13.43;7.45;;;;;;;9.59;65.39;98951.63;4915474;28;20568;-78
2023/12/15 10:49:42;;;;;;;12.82;7.57;;;;;;;9.64;65.46;98964.84;4890714;28;20185;-78
2023/12/15 10:52:08;;;;;;;16.10;8.13;;;;;;;9.63;64.83;98962.44;4887716;28;20649;-78
2023/12/15 10:54:34;;;;;;;12.35;8.48;;;;;;;9.64;64.93;98977.06;4902911;28;20170;-78
2023/12/15 10:56:59;;;;;;;13.70;7.15;;;;;;;9.62;64.91;98966.84;4916511;28;20208;-78
2023/12/15 10:59:27;;;;;;;15.30;7.78;;;;;;;9.60;65.09;98976.66;4904288;28;20171;-78
2023/12/15 11:01:53;;;;;;;11.73;7.40;;;;;;;9.61;65.22;98975.63;4896407;28;20110;-78
2023/12/15 11:04:21;;;;;;;13.30;8.05;;;;;;;9.67;65.43;98979.28;4912328;28;20224;-78
2023/12/15 11:06:48;;;;;;;10.80;7.28;;;;;;;9.66;64.74;98988.06;4887101;28;20661;-78
2023/12/15 11:09:25;;;;;;;14.23;7.70;;;;;;;9.62;64.74;98984.25;4906085;28;20213;-78
2023/12/15 11:11:51;;;;;;;13.40;7.70;;;;;;;9.39;65.41;98977.56;4888180;28;20212;-78
2023/12/15 11:14:17;;;;;;;11.55;6.90;;;;;;;9.60;65.15;98981.84;4891105;28;20297;-78
2023/12/15 11:16:45;;;;;;;10.82;7.57;;;;;;;9.71;65.27;98980.50;4910237;28;20163;-78
2023/12/15 11:19:10;;;;;;;12.50;8.02;;;;;;;9.74;65.38;98977.50;4905442;28;20205;-78
2023/12/15 11:21:36;;;;;;;10.93;6.88;;;;;;;9.68;65.70;98975.66;4921831;28;20216;-79
2023/12/15 11:24:04;;;;;;;15.93;8.48;;;;;;;9.82;65.01;98992.13;4896465;28;20277;-78